Time;durP1;ratioP1;P1;durP2;ratioP2;P2;SDS_P1;SDS_P2;PMS_P1;PMS_P2;Temp;Humidity;BMP_temperature;BMP_pressure;BME280_temperature;BME280_humidity;BME280_pressure;Samples;Min_cycle;Max_cycle;Signal;HPM_P1;HPM_P2
2021/05/11 00:01:39;;;;;;;8.02;0.77;;;12.90;99.90;;;;;;5049468;28;20032;-74
2021/05/11 00:04:05;;;;;;;5.43;0.65;;;12.90;99.90;;;;;;5055222;28;20028;-74
2021/05/11 00:06:30;;;;;;;9.88;0.10;;;12.90;99.90;;;;;;5065513;28;20020;-74
2021/05/11 00:08:56;;;;;;;6.43;0.82;;;12.90;99.90;;;;;;5078856;28;20036;-74
2021/05/11 00:11:21;;;;;;;5.55;0.57;;;12.90;99.90;;;;;;5075013;28;20031;-74
2021/05/11 00:13:47;;;;;;;7.72;0.20;;;12.90;99.90;;;;;;5056680;28;20111;-74
2021/05/11 00:16:13;;;;;;;8.88;0.73;;;12.90;99.90;;;;;;5074568;28;20027;-74
2021/05/11 00:18:38;;;;;;;5.50;0.52;;;13.00;99.90;;;;;;5077602;28;20039;-74
2021/05/11 00:21:04;;;;;;;7.53;1.20;;;13.00;99.90;;;;;;5087627;28;20016;-73
2021/05/11 00:23:30;;;;;;;3.58;0.52;;;13.00;99.90;;;;;;5074811;28;20020;-73
2021/05/11 00:25:56;;;;;;;6.10;0.88;;;13.00;99.90;;;;;;5072436;28;20482;-73
2021/05/11 00:28:22;;;;;;;9.15;1.00;;;12.90;99.90;;;;;;5037351;28;20446;-73
2021/05/11 00:30:49;;;;;;;3.85;0.40;;;13.20;99.90;;;;;;5036454;28;20028;-76
2021/05/11 00:33:15;;;;;;;4.50;0.10;;;12.90;99.90;;;;;;5054220;28;20032;-74
2021/05/11 00:35:40;;;;;;;3.38;0.25;;;12.90;99.90;;;;;;5066324;28;20389;-74
2021/05/11 00:38:06;;;;;;;6.28;0.20;;;12.90;99.90;;;;;;5073412;28;20480;-75
2021/05/11 00:40:32;;;;;;;5.07;0.77;;;13.00;99.90;;;;;;5073899;28;20055;-75
2021/05/11 00:42:58;;;;;;;4.82;0.25;;;13.00;99.90;;;;;;5067846;28;20036;-75
2021/05/11 00:45:24;;;;;;;5.18;0.03;;;12.90;99.90;;;;;;5054549;28;20033;-75
2021/05/11 00:47:50;;;;;;;4.50;0.00;;;13.10;99.90;;;;;;5038235;28;20401;-75
2021/05/11 00:50:15;;;;;;;6.88;0.10;;;12.90;99.90;;;;;;5089374;28;20028;-75
2021/05/11 00:52:42;;;;;;;3.88;0.15;;;12.90;99.90;;;;;;5076100;28;20016;-75
2021/05/11 00:55:08;;;;;;;3.85;0.28;;;12.90;99.90;;;;;;5076137;28;20107;-72
2021/05/11 00:57:35;;;;;;;2.03;0.20;;;12.80;99.90;;;;;;5075879;28;20125;-72
2021/05/11 01:00:03;;;;;;;8.35;0.57;;;12.80;99.90;;;;;;5094076;28;20027;-73
2021/05/11 01:02:29;;;;;;;6.03;0.70;;;12.80;99.90;;;;;;5075392;28;20016;-72
2021/05/11 01:04:56;;;;;;;4.25;0.30;;;12.80;99.90;;;;;;5073739;28;20493;-73
2021/05/11 01:07:21;;;;;;;6.25;0.63;;;12.80;99.90;;;;;;5055821;28;20020;-73
2021/05/11 01:09:47;;;;;;;5.80;0.65;;;12.80;99.90;;;;;;5085135;28;20477;-73
2021/05/11 01:12:13;;;;;;;4.10;0.13;;;12.80;99.90;;;;;;5094357;28;20575;-72
2021/05/11 01:14:38;;;;;;;1.48;0.17;;;12.80;99.90;;;;;;5057372;28;20025;-72
2021/05/11 01:17:04;;;;;;;3.75;0.63;;;12.80;99.90;;;;;;5055819;28;20025;-72
2021/05/11 01:24:27;;;;;;;3.13;0.10;;;12.90;99.90;;;;;;5094006;28;20028;-72
2021/05/11 01:51:47;;;;;;;2.60;0.35;;;12.60;99.90;;;;;;5093621;28;20493;-73
2021/05/11 02:23:25;;;;;;;5.93;0.68;;;12.40;99.90;;;;;;5073971;28;20028;-75
2021/05/11 02:25:50;;;;;;;;;;;12.30;99.90;;;;;;5085714;28;20111;-73
2021/05/11 02:28:17;;;;;;;5.93;0.68;;;12.30;99.90;;;;;;5057504;28;19943;-73
2021/05/11 02:30:43;;;;;;;3.08;0.57;;;12.30;99.90;;;;;;5139403;23;20051;-74
2021/05/11 02:33:08;;;;;;;4.55;0.43;;;12.30;99.90;;;;;;5073077;28;20017;-74
2021/05/11 02:35:34;;;;;;;10.55;0.82;;;12.20;99.90;;;;;;5055164;28;20029;-74
2021/05/11 02:38:01;;;;;;;1.67;0.63;;;12.30;99.90;;;;;;5073017;28;20029;-74
2021/05/11 02:40:26;;;;;;;2.08;0.10;;;12.20;99.90;;;;;;5055094;28;20156;-74
2021/05/11 02:43:00;;;;;;;1.70;0.10;;;12.10;99.90;;;;;;5072299;28;20067;-76
2021/05/11 02:45:26;;;;;;;2.05;0.20;;;12.10;99.90;;;;;;5081773;28;20025;-76
2021/05/11 02:47:52;;;;;;;5.88;0.55;;;12.00;99.90;;;;;;5093512;28;20031;-73
2021/05/11 02:50:28;;;;;;;0.75;0.10;;;11.90;99.90;;;;;;5075094;28;20031;-75
2021/05/11 02:52:54;;;;;;;4.28;0.30;;;11.80;99.90;;;;;;5074930;28;20035;-73
2021/05/11 02:55:20;;;;;;;4.65;0.20;;;11.70;99.90;;;;;;5080424;28;20028;-74
2021/05/11 02:57:46;;;;;;;2.92;0.32;;;11.70;99.90;;;;;;5093367;28;20021;-75
2021/05/11 03:00:15;;;;;;;10.02;0.85;;;11.60;99.90;;;;;;5093072;28;20024;-74
2021/05/11 03:02:41;;;;;;;4.40;0.25;;;11.60;99.90;;;;;;5084251;28;20028;-73
2021/05/11 03:05:07;;;;;;;6.40;0.80;;;11.50;99.90;;;;;;5076561;28;20020;-76
2021/05/11 03:07:33;;;;;;;6.05;0.10;;;11.50;99.90;;;;;;5075922;28;20047;-77
2021/05/11 03:09:59;;;;;;;4.82;0.43;;;11.40;99.90;;;;;;5076127;28;20101;-73
2021/05/11 03:12:25;;;;;;;2.92;0.38;;;11.30;99.90;;;;;;5075893;28;20032;-75
2021/05/11 03:14:50;;;;;;;6.57;0.80;;;11.30;99.90;;;;;;5092496;28;20077;-74
2021/05/11 03:17:22;;;;;;;4.53;0.52;;;11.20;99.90;;;;;;5090974;28;20527;-77
2021/05/11 03:19:48;;;;;;;6.38;0.43;;;11.20;99.90;;;;;;5075488;28;20048;-74
2021/05/11 03:22:13;;;;;;;2.65;0.30;;;11.10;99.90;;;;;;5075832;28;20075;-75
2021/05/11 03:24:43;;;;;;;11.65;1.13;;;11.10;99.90;;;;;;5090411;28;20028;-74
2021/05/11 03:27:09;;;;;;;4.32;0.15;;;11.10;99.90;;;;;;5095964;28;20016;-75
2021/05/11 03:29:35;;;;;;;2.92;0.45;;;11.10;99.90;;;;;;5095835;28;20024;-75
2021/05/11 03:32:00;;;;;;;6.20;0.75;;;11.00;99.90;;;;;;5092588;22;20051;-74
2021/05/11 03:34:26;;;;;;;2.83;0.45;;;11.00;99.90;;;;;;5067783;28;20032;-73
2021/05/11 03:36:52;;;;;;;5.93;0.45;;;14.70;99.90;;;;;;5076329;22;20033;-74
2021/05/11 03:39:17;;;;;;;3.38;0.25;;;13.30;99.90;;;;;;5074206;28;20119;-74
2021/05/11 03:41:49;;;;;;;4.70;0.80;;;11.10;99.90;;;;;;5057721;28;20028;-73
2021/05/11 03:44:18;;;;;;;5.30;0.88;;;11.10;99.90;;;;;;5055790;28;20378;-74
2021/05/11 03:46:44;;;;;;;3.55;0.50;;;11.10;99.90;;;;;;5048331;28;20052;-73
2021/05/11 03:49:10;;;;;;;3.67;0.28;;;11.10;99.90;;;;;;5057677;28;20028;-72
2021/05/11 03:51:36;;;;;;;2.15;0.50;;;11.00;99.90;;;;;;5058824;28;20455;-75
2021/05/11 03:54:03;;;;;;;3.65;1.00;;;11.00;99.90;;;;;;5057292;28;20029;-73
2021/05/11 03:56:28;;;;;;;3.33;0.43;;;11.00;99.90;;;;;;5065534;28;20022;-73
2021/05/11 03:58:54;;;;;;;3.85;0.60;;;11.10;99.90;;;;;;5054722;28;20036;-73
2021/05/11 04:01:20;;;;;;;3.33;0.68;;;11.00;99.90;;;;;;5037336;28;20108;-73
2021/05/11 04:03:46;;;;;;;3.40;0.10;;;10.90;99.90;;;;;;5055927;28;20047;-74
2021/05/11 04:06:12;;;;;;;3.45;0.35;;;10.90;99.90;;;;;;5060516;28;20017;-73
2021/05/11 04:16:33;;;;;;;8.02;1.20;;;10.90;99.90;;;;;;5054648;28;20036;-74
2021/05/11 04:18:58;;;;;;;3.78;1.55;;;11.00;99.90;;;;;;5055806;28;20040;-74
2021/05/11 04:21:24;;;;;;;6.45;2.08;;;11.00;99.90;;;;;;5074536;28;20016;-74
2021/05/11 04:23:51;;;;;;;5.20;1.25;;;11.00;99.90;;;;;;5074421;28;20491;-74
2021/05/11 04:26:17;;;;;;;2.15;0.70;;;11.00;99.90;;;;;;5061756;28;20165;-74
2021/05/11 04:28:45;;;;;;;5.15;1.55;;;11.00;99.90;;;;;;5071221;28;20032;-74
2021/05/11 04:31:11;;;;;;;7.90;0.43;;;11.80;99.90;;;;;;5061376;28;20134;-74
2021/05/11 04:33:37;;;;;;;5.72;0.95;;;11.00;99.90;;;;;;5054591;28;20299;-74
2021/05/11 04:36:04;;;;;;;3.67;1.00;;;11.10;99.90;;;;;;5054323;28;20104;-74
2021/05/11 04:38:29;;;;;;;4.28;0.90;;;11.10;99.90;;;;;;5065511;28;20448;-74
2021/05/11 04:40:55;;;;;;;5.28;0.93;;;11.10;99.90;;;;;;5054106;28;20021;-73
2021/05/11 04:43:25;;;;;;;5.93;1.25;;;11.20;99.90;;;;;;5035704;28;20017;-73
2021/05/11 04:46:03;;;;;;;1.77;0.70;;;11.20;99.90;;;;;;5036510;28;20039;-73
2021/05/11 04:48:29;;;;;;;5.38;0.77;;;11.20;99.90;;;;;;5050711;28;20029;-73
2021/05/11 04:50:54;;;;;;;1.73;0.70;;;11.30;99.90;;;;;;5065775;28;20453;-73
2021/05/11 04:53:21;;;;;;;8.13;1.42;;;11.30;99.90;;;;;;5053996;28;20039;-75
2021/05/11 04:55:46;;;;;;;3.58;0.88;;;11.30;99.90;;;;;;5041456;28;20051;-73
2021/05/11 04:58:12;;;;;;;8.18;1.50;;;11.40;99.90;;;;;;5056066;28;20020;-74
2021/05/11 05:00:37;;;;;;;5.82;1.15;;;11.40;99.90;;;;;;5074526;28;20013;-73
2021/05/11 05:03:06;;;;;;;9.98;1.63;;;11.50;99.90;;;;;;5074612;28;20032;-73
2021/05/11 05:05:32;;;;;;;6.15;0.90;;;11.50;99.90;;;;;;5070294;28;20017;-74
2021/05/11 05:07:58;;;;;;;3.85;0.70;;;11.60;99.90;;;;;;5035902;28;20478;-74
2021/05/11 05:10:23;;;;;;;5.53;1.23;;;11.70;99.90;;;;;;5035645;28;20025;-72
2021/05/11 05:12:49;;;;;;;3.97;0.50;;;11.70;99.90;;;;;;5053402;28;20025;-72
2021/05/11 05:15:15;;;;;;;4.05;0.93;;;11.80;99.90;;;;;;5036024;28;20021;-72
2021/05/11 05:17:41;;;;;;;6.05;0.73;;;11.80;99.90;;;;;;5053748;28;20082;-74
2021/05/11 05:20:07;;;;;;;5.45;0.93;;;11.90;99.90;;;;;;5053648;28;20386;-74
2021/05/11 05:22:32;;;;;;;7.13;0.98;;;12.00;99.90;;;;;;5052699;23;20106;-74
2021/05/11 05:25:00;;;;;;;3.78;1.15;;;12.90;99.90;;;;;;5073249;28;20020;-74
2021/05/11 05:27:38;;;;;;;5.47;1.43;;;12.10;99.90;;;;;;5073826;28;20025;-74
2021/05/11 05:30:05;;;;;;;4.60;1.10;;;12.20;99.90;;;;;;5073759;28;20040;-74
2021/05/11 05:32:30;;;;;;;4.38;0.60;;;12.20;99.90;;;;;;5068145;28;20028;-74
2021/05/11 05:34:56;;;;;;;6.35;0.77;;;12.30;99.90;;;;;;5053707;28;20024;-74
2021/05/11 05:37:21;;;;;;;7.05;1.40;;;12.40;99.90;;;;;;5084030;22;20137;-75
2021/05/11 05:39:50;;;;;;;4.15;0.70;;;12.50;99.90;;;;;;5074784;28;20082;-77
2021/05/11 05:42:16;;;;;;;;;;;12.60;99.90;;;;;;5056061;28;20478;-73
2021/05/11 05:44:42;;;;;;;6.30;1.13;;;12.70;99.90;;;;;;5073951;28;19951;-75
2021/05/11 05:47:07;;;;;;;9.23;0.77;;;12.90;99.90;;;;;;5073680;28;20024;-73
2021/05/11 05:49:40;;;;;;;3.78;1.20;;;12.90;99.90;;;;;;5055928;28;20024;-76
2021/05/11 05:52:09;;;;;;;5.63;1.00;;;13.00;99.90;;;;;;5045461;28;20032;-73
2021/05/11 05:54:34;;;;;;;5.80;1.92;;;13.10;99.90;;;;;;5035475;28;20039;-77
2021/05/11 05:57:00;;;;;;;2.53;1.27;;;13.20;99.90;;;;;;5081763;28;20461;-74
2021/05/11 05:59:25;;;;;;;5.88;1.00;;;13.20;99.90;;;;;;5090400;28;20469;-78
2021/05/11 06:01:54;;;;;;;7.78;1.10;;;13.30;99.90;;;;;;5073389;28;20386;-73
2021/05/11 06:04:24;;;;;;;9.98;1.42;;;13.30;99.90;;;;;;5073016;28;20033;-73
2021/05/11 06:06:49;;;;;;;8.75;1.20;;;13.50;99.90;;;;;;5073010;28;20029;-73
2021/05/11 06:09:17;;;;;;;2.33;0.95;;;13.60;99.90;;;;;;5040716;28;20074;-73
2021/05/11 06:11:50;;;;;;;8.10;1.48;;;13.70;99.90;;;;;;5076479;28;20153;-74
2021/05/11 06:19:28;;;;;;;3.80;0.57;;;14.00;99.90;;;;;;5093341;28;20032;-74
2021/05/11 06:21:54;;;;;;;3.55;0.85;;;14.10;99.90;;;;;;5075387;28;20428;-78
2021/05/11 06:24:20;;;;;;;4.13;0.98;;;14.20;99.90;;;;;;5093476;28;20030;-77
2021/05/11 06:26:46;;;;;;;6.60;1.48;;;14.40;99.90;;;;;;5075788;28;20069;-77
2021/05/11 06:29:13;;;;;;;4.50;1.10;;;14.40;99.90;;;;;;5093713;28;20028;-75
2021/05/11 06:31:39;;;;;;;7.20;0.80;;;14.50;99.90;;;;;;5093168;28;20024;-75
2021/05/11 06:34:06;;;;;;;3.72;0.77;;;14.60;99.90;;;;;;5092905;28;20465;-75
2021/05/11 06:36:32;;;;;;;8.68;0.93;;;14.70;99.90;;;;;;5075945;28;20115;-74
2021/05/11 06:38:58;;;;;;;4.65;1.08;;;14.80;99.90;;;;;;5096849;28;20099;-74
2021/05/11 06:41:24;;;;;;;5.88;1.50;;;14.90;99.90;;;;;;5078612;28;20021;-75
2021/05/11 06:43:55;;;;;;;6.70;1.27;;;15.00;99.90;;;;;;5078475;28;20059;-75
2021/05/11 06:54:13;;;;;;;4.20;1.05;;;15.50;99.90;;;;;;5097101;28;20028;-76
2021/05/11 06:56:43;;;;;;;3.05;0.93;;;15.60;99.90;;;;;;5097100;28;20028;-76
2021/05/11 06:59:09;;;;;;;6.15;1.25;;;15.70;99.90;;;;;;5078500;28;20116;-76
2021/05/11 07:01:34;;;;;;;10.60;1.77;;;15.80;99.90;;;;;;5097003;28;20048;-77
2021/05/11 07:04:00;;;;;;;7.43;0.98;;;15.70;99.90;;;;;;5096674;28;20027;-76
2021/05/11 07:06:26;;;;;;;4.97;1.10;;;15.90;99.90;;;;;;5097085;28;20020;-76
2021/05/11 07:08:54;;;;;;;7.68;1.60;;;16.00;99.90;;;;;;5078618;28;20024;-77
2021/05/11 07:13:45;;;;;;;7.80;1.25;;;16.00;99.90;;;;;;5096224;28;20031;-74
2021/05/11 07:16:11;;;;;;;10.07;1.65;;;16.10;99.90;;;;;;5096171;28;20028;-74
2021/05/11 07:18:37;;;;;;;9.32;2.30;;;16.20;99.90;;;;;;5096051;28;20028;-75
2021/05/11 07:21:03;;;;;;;8.18;1.13;;;16.20;99.90;;;;;;5096060;28;20023;-75
2021/05/11 07:23:29;;;;;;;9.23;1.65;;;16.40;99.90;;;;;;5096229;28;20411;-74
2021/05/11 07:31:02;;;;;;;6.20;1.35;;;16.70;99.90;;;;;;5096126;28;20036;-74
2021/05/11 07:33:40;;;;;;;8.38;2.22;;;16.90;99.90;;;;;;5095741;28;20020;-74
2021/05/11 07:36:06;;;;;;;3.25;1.10;;;17.00;99.90;;;;;;5095841;28;20500;-75
2021/05/11 07:38:33;;;;;;;5.40;0.38;;;17.20;99.90;;;;;;5095540;28;20020;-74
2021/05/11 07:40:59;;;;;;;5.93;1.00;;;17.30;99.90;;;;;;5077526;28;20392;-74
2021/05/11 07:43:26;;;;;;;7.38;1.77;;;17.40;99.90;;;;;;5095548;28;20016;-74
2021/05/11 08:04:34;;;;;;;5.47;1.08;;;18.20;99.90;;;;;;5095991;28;20024;-73
2021/05/11 08:09:58;;;;;;;7.28;1.75;;;18.10;99.90;;;;;;5095426;28;20028;-74
2021/05/11 08:17:53;;;;;;;12.65;1.55;;;18.00;99.90;;;;;;5095391;28;20036;-74
2021/05/11 08:28:42;;;;;;;5.82;1.20;;;17.90;99.90;;;;;;5095713;28;20031;-75
2021/05/11 08:31:08;;;;;;;5.95;1.77;;;17.90;99.90;;;;;;5077367;28;20028;-75
2021/05/11 08:33:34;;;;;;;8.05;2.40;;;17.90;99.90;;;;;;5095191;28;20027;-77
2021/05/11 08:36:00;;;;;;;14.60;1.90;;;17.90;99.90;;;;;;5095617;28;20032;-78
2021/05/11 08:38:26;;;;;;;5.15;2.05;;;17.90;99.90;;;;;;5077618;28;20027;-73
2021/05/11 08:40:52;;;;;;;4.05;1.75;;;17.90;99.90;;;;;;5094450;28;20021;-73
2021/05/11 08:43:28;;;;;;;3.92;1.63;;;17.90;99.90;;;;;;5076363;28;20488;-73
2021/05/11 08:45:55;;;;;;;9.00;2.03;;;17.90;99.90;;;;;;5094715;28;20048;-75
2021/05/11 08:48:22;;;;;;;6.00;1.50;;;18.00;99.90;;;;;;5094531;28;20024;-74
2021/05/11 08:50:51;;;;;;;6.95;1.80;;;18.00;99.90;;;;;;5094576;28;20051;-74
2021/05/11 09:24:52;;;;;;;9.57;2.30;;;18.20;99.90;;;;;;5093852;28;20035;-73
2021/05/11 09:59:42;;;;;;;3.80;2.20;;;18.80;99.90;;;;;;5073566;28;20055;-75
2021/05/11 10:39:05;;;;;;;10.15;3.83;;;17.70;99.90;;;;;;5077426;28;20028;-74
2021/05/11 10:46:58;;;;;;;9.57;4.47;;;18.20;99.90;;;;;;5089423;22;20131;-76
2021/05/11 10:49:36;;;;;;;9.00;4.82;;;18.40;99.90;;;;;;5077044;28;20028;-75
2021/05/11 10:52:30;;;;;;;14.38;5.18;;;18.50;99.90;;;;;;5077364;28;20032;-74
2021/05/11 10:55:19;;;;;;;8.75;3.70;;;19.30;99.90;;;;;;5077060;28;20378;-75
2021/05/11 10:58:06;;;;;;;11.02;4.30;;;18.60;99.90;;;;;;5059103;28;20114;-73
2021/05/11 11:03:21;;;;;;;9.43;4.70;;;18.70;99.90;;;;;;5077416;28;20048;-74
2021/05/11 11:06:00;;;;;;;8.35;3.90;;;18.90;99.90;;;;;;5058925;28;20077;-73
2021/05/11 11:08:30;;;;;;;8.10;5.18;;;18.90;99.90;;;;;;5058680;28;20385;-76
2021/05/11 11:11:09;;;;;;;13.88;5.25;;;19.00;99.90;;;;;;5058903;28;20024;-76
2021/05/11 11:13:40;;;;;;;9.48;3.97;;;19.20;99.90;;;;;;5058985;28;20381;-73
2021/05/11 11:16:07;;;;;;;9.52;4.53;;;19.20;99.90;;;;;;5076078;28;20025;-73
2021/05/11 11:18:33;;;;;;;9.18;4.90;;;19.40;99.90;;;;;;5076265;28;20036;-73
2021/05/11 11:23:43;;;;;;;11.23;4.38;;;19.70;99.90;;;;;;5075631;28;20037;-76
2021/05/11 11:26:11;;;;;;;9.35;4.38;;;19.90;99.90;;;;;;5075864;28;20342;-76
2021/05/11 11:28:37;;;;;;;8.52;3.78;;;20.10;99.90;;;;;;5076178;28;20020;-74
2021/05/11 11:31:24;;;;;;;10.00;3.95;;;20.00;99.90;;;;;;5075644;28;20031;-73
2021/05/11 11:33:49;;;;;;;9.45;3.80;;;20.10;99.90;;;;;;5076460;28;20021;-75
2021/05/11 11:36:34;;;;;;;11.70;3.95;;;20.20;99.90;;;;;;5075711;28;20017;-72
2021/05/11 11:39:01;;;;;;;11.80;3.20;;;20.10;99.90;;;;;;5075481;28;20052;-73
2021/05/11 11:41:28;;;;;;;9.15;4.10;;;20.10;97.90;;;;;;5075639;28;20020;-73
2021/05/11 11:43:54;;;;;;;8.00;2.72;;;20.00;96.60;;;;;;5075826;28;20013;-72
2021/05/11 11:46:25;;;;;;;6.75;3.25;;;19.80;96.70;;;;;;5057485;28;20025;-75
2021/05/11 11:49:12;;;;;;;7.65;2.70;;;19.60;98.00;;;;;;5057454;28;20110;-75
2021/05/11 11:51:38;;;;;;;7.00;2.97;;;19.30;96.40;;;;;;5057782;28;20024;-75
2021/05/11 11:54:03;;;;;;;5.07;2.97;;;19.30;99.20;;;;;;5075602;28;20103;-77
2021/05/11 11:59:05;;;;;;;10.10;2.63;;;18.80;98.80;;;;;;5087644;22;20725;-73
2021/05/11 12:01:30;;;;;;;10.68;3.25;;;18.70;99.90;;;;;;5069926;23;20075;-76
2021/05/11 12:03:56;;;;;;;10.07;3.38;;;18.90;99.90;;;;;;5075553;28;20021;-75
2021/05/11 12:06:28;;;;;;;8.38;2.33;;;18.40;99.90;;;;;;5075166;28;20401;-74
2021/05/11 12:08:54;;;;;;;9.13;1.38;;;19.80;99.90;;;;;;5069662;22;20508;-77
2021/05/11 12:11:20;;;;;;;5.03;1.10;;;18.20;99.90;;;;;;5076171;28;20029;-77
2021/05/11 12:13:49;;;;;;;5.05;1.45;;;18.10;99.90;;;;;;5057675;28;20021;-77
2021/05/11 12:16:16;;;;;;;9.80;1.20;;;19.00;99.90;;;;;;5074969;28;20025;-74
2021/05/11 12:19:16;;;;;;;2.85;0.70;;;18.10;99.90;;;;;;5075805;28;20036;-77
2021/05/11 12:21:55;;;;;;;5.20;1.08;;;18.00;99.90;;;;;;5092895;23;20086;-74
2021/05/11 12:24:34;;;;;;;5.03;0.63;;;18.00;99.90;;;;;;5054954;28;20596;-74
2021/05/11 12:27:22;;;;;;;2.47;0.77;;;18.10;99.90;;;;;;5056125;28;20013;-76
2021/05/11 12:29:58;;;;;;;6.80;1.25;;;18.10;99.90;;;;;;5037163;28;20029;-75
2021/05/11 12:32:27;;;;;;;4.05;0.98;;;18.20;99.90;;;;;;5054951;28;20071;-75
2021/05/11 12:37:57;;;;;;;3.38;0.80;;;18.30;99.90;;;;;;5073872;28;20037;-75
2021/05/11 12:40:29;;;;;;;5.28;1.00;;;18.40;99.90;;;;;;5074862;28;20107;-75
2021/05/11 12:42:57;;;;;;;8.23;1.40;;;18.60;99.90;;;;;;5111111;22;20017;-74
2021/05/11 12:45:24;;;;;;;5.80;2.17;;;18.60;99.90;;;;;;5074883;28;20461;-75
2021/05/11 12:48:00;;;;;;;4.45;1.35;;;18.50;99.90;;;;;;5098495;22;20102;-75
2021/05/11 12:50:31;;;;;;;3.50;1.48;;;20.30;99.90;;;;;;5074535;28;20029;-75
2021/05/11 12:53:04;;;;;;;7.70;1.55;;;18.50;99.90;;;;;;5075278;28;20021;-76
2021/05/11 12:56:00;;;;;;;8.20;1.98;;;15.90;99.90;;;;;;5096428;22;20052;-74
2021/05/11 13:01:48;;;;;;;3.70;1.85;;;18.30;99.90;;;;;;5086847;22;20056;-73
2021/05/11 13:25:39;;;;;;;4.70;2.80;;;18.30;99.90;;;;;;5087556;22;20141;-77
2021/05/11 13:35:33;;;;;;;6.97;2.72;;;18.10;99.90;;;;;;5074609;28;20056;-74
2021/05/11 13:37:59;;;;;;;11.00;2.50;;;18.00;99.90;;;;;;5074292;28;20029;-74
2021/05/11 13:40:24;;;;;;;4.40;1.98;;;18.00;99.90;;;;;;5074085;28;20027;-73
2021/05/11 13:42:51;;;;;;;10.65;3.00;;;17.90;99.90;;;;;;5074573;28;20024;-73
2021/05/11 13:45:17;;;;;;;5.00;2.28;;;17.80;99.90;;;;;;5073773;28;20025;-74
2021/05/11 13:48:02;;;;;;;6.63;2.67;;;17.70;99.90;;;;;;5056210;28;20021;-74
2021/05/11 13:51:20;;;;;;;9.95;2.30;;;17.70;99.90;;;;;;5073813;28;20032;-73
2021/05/11 13:53:53;;;;;;;9.88;2.45;;;17.50;99.90;;;;;;5043027;28;20121;-74
2021/05/11 14:04:03;;;;;;;7.13;1.42;;;19.20;99.90;;;;;;5072233;28;20088;-73
2021/05/11 14:06:29;;;;;;;4.88;1.95;;;17.10;99.90;;;;;;5073848;28;20435;-73
2021/05/11 14:08:54;;;;;;;3.95;1.67;;;17.00;99.90;;;;;;5073931;28;20099;-73
2021/05/11 14:11:24;;;;;;;6.45;1.65;;;16.90;99.90;;;;;;5073605;28;20109;-73
2021/05/11 14:13:50;;;;;;;8.07;2.30;;;16.80;99.90;;;;;;5055439;28;20025;-73
2021/05/11 14:16:16;;;;;;;7.70;2.28;;;16.80;99.90;;;;;;5073705;28;20027;-73
2021/05/11 14:18:49;;;;;;;5.95;1.80;;;16.80;99.90;;;;;;5073677;28;20037;-74
2021/05/11 14:21:14;;;;;;;5.70;1.77;;;16.70;99.90;;;;;;5073461;28;20027;-73
2021/05/11 14:23:41;;;;;;;8.88;2.00;;;16.80;99.90;;;;;;5073455;28;20025;-73
2021/05/11 14:26:06;;;;;;;6.68;2.67;;;16.90;99.90;;;;;;5073391;28;20492;-73
2021/05/11 14:28:32;;;;;;;9.63;1.98;;;16.90;99.90;;;;;;5055435;28;20119;-73
2021/05/11 14:30:57;;;;;;;5.90;2.45;;;17.00;99.90;;;;;;5099886;23;20056;-74
2021/05/11 14:33:26;;;;;;;9.15;2.22;;;17.10;99.90;;;;;;5055448;28;20025;-73
2021/05/11 14:35:55;;;;;;;;;;;17.10;99.90;;;;;;5074254;28;20024;-74
2021/05/11 14:38:20;;;;;;;6.18;2.25;;;17.30;99.90;;;;;;5073654;28;19958;-75
2021/05/11 14:40:46;;;;;;;10.35;2.67;;;17.30;99.90;;;;;;5086182;23;20400;-75
2021/05/11 14:43:11;;;;;;;4.00;2.13;;;17.30;99.90;;;;;;5072707;28;20024;-75
2021/05/11 14:45:38;;;;;;;7.00;2.50;;;17.40;99.90;;;;;;5073088;28;20488;-74
2021/05/11 14:48:04;;;;;;;6.30;2.67;;;17.50;99.90;;;;;;5072748;28;20025;-74
2021/05/11 14:50:29;;;;;;;7.25;2.90;;;17.60;99.90;;;;;;5054696;28;20063;-75
2021/05/11 14:52:55;;;;;;;9.57;2.67;;;17.70;99.90;;;;;;5054595;28;20492;-75
2021/05/11 14:55:25;;;;;;;9.73;3.47;;;17.80;99.90;;;;;;5054590;28;20030;-75
2021/05/11 14:57:55;;;;;;;8.63;2.97;;;17.90;99.90;;;;;;5074145;28;20404;-75
2021/05/11 15:00:21;;;;;;;6.93;2.28;;;17.90;99.90;;;;;;5058273;28;20048;-75
2021/05/11 15:02:47;;;;;;;10.10;3.72;;;18.00;99.90;;;;;;5058207;28;20036;-75
2021/05/11 15:05:13;;;;;;;7.65;2.58;;;18.10;99.90;;;;;;5076234;28;20477;-75
2021/05/11 15:07:38;;;;;;;8.45;4.38;;;18.10;99.90;;;;;;5076229;28;20388;-75
2021/05/11 15:10:05;;;;;;;7.82;3.45;;;18.10;99.90;;;;;;5076175;28;20099;-75
2021/05/11 15:12:31;;;;;;;6.60;3.03;;;18.10;99.90;;;;;;5058267;28;20602;-75
2021/05/11 15:14:57;;;;;;;13.80;4.40;;;18.20;99.90;;;;;;5075943;28;20039;-75
2021/05/11 15:19:51;;;;;;;9.93;3.58;;;18.20;99.90;;;;;;5076124;28;20446;-74
2021/05/11 15:22:17;;;;;;;9.52;3.20;;;18.20;99.90;;;;;;5057893;28;20119;-75
2021/05/11 15:24:43;;;;;;;5.10;1.85;;;18.20;99.90;;;;;;5058134;28;20504;-75
2021/05/11 15:27:09;;;;;;;8.35;2.20;;;18.20;99.90;;;;;;5076386;28;20473;-75
2021/05/11 15:29:37;;;;;;;5.88;2.92;;;18.80;99.90;;;;;;5088559;22;20024;-74
2021/05/11 15:32:23;;;;;;;6.38;3.08;;;18.80;99.90;;;;;;5089287;22;20044;-75
2021/05/11 15:34:48;;;;;;;4.97;2.30;;;17.80;99.90;;;;;;5057586;28;20025;-74
2021/05/11 15:37:16;;;;;;;4.15;1.65;;;17.70;99.90;;;;;;5070569;23;20047;-73
2021/05/11 15:39:41;;;;;;;3.80;2.08;;;17.70;99.90;;;;;;5075461;28;20051;-73
2021/05/11 15:42:07;;;;;;;4.47;1.98;;;17.60;99.90;;;;;;5075655;28;20077;-73
2021/05/11 15:44:34;;;;;;;5.15;1.85;;;17.70;99.90;;;;;;5076002;28;20032;-73
2021/05/11 15:47:00;;;;;;;5.90;1.40;;;17.60;99.90;;;;;;5075876;28;20048;-73
2021/05/11 15:49:25;;;;;;;2.15;0.90;;;17.70;99.90;;;;;;5075873;28;20563;-73
2021/05/11 15:51:51;;;;;;;7.93;1.73;;;17.70;99.90;;;;;;5075259;28;20469;-73
2021/05/11 15:54:16;;;;;;;4.40;2.08;;;18.00;99.90;;;;;;5075316;28;20377;-73
2021/05/11 15:56:43;;;;;;;8.98;2.03;;;18.50;99.90;;;;;;5075292;28;20478;-73
2021/05/11 15:59:08;;;;;;;4.35;1.42;;;19.30;99.90;;;;;;5057055;28;20029;-73
2021/05/11 16:01:34;;;;;;;3.30;1.02;;;19.90;99.90;;;;;;5074992;28;20546;-73
2021/05/11 16:03:59;;;;;;;5.18;1.15;;;20.30;99.90;;;;;;5074866;28;20077;-73
2021/05/11 16:06:25;;;;;;;4.30;0.88;;;20.50;99.90;;;;;;5074810;28;20025;-73
2021/05/11 16:08:50;;;;;;;1.67;0.85;;;20.40;98.20;;;;;;5056528;28;20063;-73
2021/05/11 16:11:16;;;;;;;3.58;0.88;;;20.30;97.20;;;;;;5057197;28;20028;-72
2021/05/11 16:13:42;;;;;;;3.10;0.63;;;20.20;96.90;;;;;;5057119;28;20507;-75
2021/05/11 16:16:07;;;;;;;2.40;0.60;;;20.00;95.30;;;;;;5057077;28;20399;-74
2021/05/11 16:18:33;;;;;;;2.17;0.35;;;19.80;95.30;;;;;;5074917;28;20025;-74
2021/05/11 16:20:59;;;;;;;3.70;0.63;;;19.50;95.90;;;;;;5075704;28;20086;-73
2021/05/11 16:23:25;;;;;;;3.50;0.50;;;19.30;96.70;;;;;;5074929;28;20021;-73
2021/05/11 16:25:50;;;;;;;1.95;0.40;;;19.10;98.90;;;;;;5075251;28;20381;-73
2021/05/11 16:28:16;;;;;;;3.17;0.60;;;19.00;98.90;;;;;;5075064;28;20030;-75
2021/05/11 16:30:42;;;;;;;3.28;0.60;;;18.80;97.50;;;;;;5073444;28;20055;-75
2021/05/11 16:33:11;;;;;;;0.77;0.10;;;18.60;99.90;;;;;;5053424;28;20029;-73
2021/05/11 16:35:37;;;;;;;1.75;0.55;;;18.50;99.90;;;;;;5095976;22;20098;-75
2021/05/11 16:38:03;;;;;;;3.10;0.57;;;18.40;99.90;;;;;;5057173;28;20021;-74
2021/05/11 16:40:29;;;;;;;1.23;0.15;;;18.30;99.90;;;;;;5057209;28;20062;-74
2021/05/11 16:42:56;;;;;;;1.92;0.10;;;18.30;99.90;;;;;;5056643;28;20024;-74
2021/05/11 16:45:22;;;;;;;3.83;0.35;;;18.20;99.90;;;;;;5056703;28;20025;-72
2021/05/11 16:47:54;;;;;;;1.85;0.00;;;18.20;99.90;;;;;;5069569;23;20098;-75
2021/05/11 16:50:28;;;;;;;1.73;0.20;;;18.20;99.90;;;;;;5088364;23;20048;-75
2021/05/11 16:52:56;;;;;;;2.70;0.05;;;18.20;99.90;;;;;;5048819;28;20021;-74
2021/05/11 16:55:23;;;;;;;2.75;0.10;;;18.40;99.90;;;;;;5036617;28;20021;-75
2021/05/11 16:57:49;;;;;;;1.08;0.17;;;18.50;99.90;;;;;;5054856;28;20474;-75
2021/05/11 17:00:17;;;;;;;2.03;0.10;;;18.60;99.90;;;;;;5054456;28;20013;-76
2021/05/11 17:02:44;;;;;;;2.92;0.20;;;18.60;99.90;;;;;;5036556;28;20071;-74
2021/05/11 17:05:10;;;;;;;3.03;0.57;;;18.50;99.90;;;;;;5055165;28;20095;-75
2021/05/11 17:07:37;;;;;;;3.63;0.32;;;18.40;99.90;;;;;;5054424;28;20051;-74
2021/05/11 17:10:04;;;;;;;5.78;0.70;;;18.20;99.90;;;;;;5036490;28;20017;-74
2021/05/11 17:12:31;;;;;;;2.58;0.55;;;17.90;99.90;;;;;;5036706;28;20017;-74
2021/05/11 17:14:56;;;;;;;1.67;0.20;;;17.60;99.90;;;;;;5054644;28;20021;-75
2021/05/11 17:17:22;;;;;;;4.30;0.80;;;17.20;99.90;;;;;;5054521;28;20028;-76
2021/05/11 17:19:47;;;;;;;1.48;0.15;;;17.00;99.90;;;;;;5053555;28;20032;-75
2021/05/11 17:22:14;;;;;;;1.00;0.10;;;16.70;99.90;;;;;;5053992;28;20028;-75
2021/05/11 17:24:40;;;;;;;2.03;0.40;;;16.40;99.90;;;;;;5036109;28;20009;-76
2021/05/11 17:27:08;;;;;;;3.63;0.60;;;16.20;99.90;;;;;;5053730;28;20112;-73
2021/05/11 17:29:34;;;;;;;4.50;0.40;;;16.10;99.90;;;;;;5054246;28;20104;-74
2021/05/11 17:32:00;;;;;;;1.63;0.10;;;15.90;99.90;;;;;;5036029;28;20218;-75
2021/05/11 17:34:25;;;;;;;1.92;0.25;;;15.80;99.90;;;;;;5036359;28;20021;-75